Stations météo

Publicité
Fyvie castle, Grande-Bretagne (99010): Température de l'air & dewpoint: 14.09.2019 05:00:00 - 20.09.2019 05:00:00 (BST)Fyvie castle, Grande-Bretagne (99010): Quantités de précipitations: 14.09.2019 05:00:00 - 20.09.2019 05:00:00 (BST)
Date & Time tt [°C] td [°C] rr [mm]
20.09.2019 05:00:00 5,0 4,7 0,0
20.09.2019 04:00:00 5,9 5,8 0,0
20.09.2019 03:00:00 5,9 5,7 0,0
20.09.2019 02:00:00 6,4 6,2 0,0
20.09.2019 01:00:00 6,6 6,2 0,0
20.09.2019 00:00:00 7,4 7,0 0,0
19.09.2019 23:00:00 8,0 7,5 0,0
19.09.2019 22:00:00 9,1 8,5 0,0
19.09.2019 21:00:00 10,2 9,3 0,0
19.09.2019 20:00:00 12,0 10,5 0,0
19.09.2019 19:00:00 14,8 12,3 0,0
19.09.2019 18:00:00 16,9 13,1 0,0
19.09.2019 17:00:00 18,0 13,4 0,0
19.09.2019 16:00:00 19,2 14,1 0,0
19.09.2019 15:00:00 18,6 12,6 0,0
19.09.2019 14:00:00 18,9 12,1 0,0
19.09.2019 13:00:00 18,9 12,8 0,0
19.09.2019 12:00:00 17,8 12,4 0,0
19.09.2019 11:00:00 15,2 14,5 0,0
19.09.2019 10:00:00 11,0 11,0 0,0
19.09.2019 09:00:00 9,3 9,1 0,0
19.09.2019 08:00:00 9,6 9,4 0,0
19.09.2019 07:00:00 9,9 9,7 0,0
19.09.2019 06:00:00 10,2 10,1 0,0
19.09.2019 05:00:00 10,4 10,2 0,0
19.09.2019 04:00:00 10,5 10,2 0,0
19.09.2019 03:00:00 10,7 10,5 0,0
19.09.2019 02:00:00 10,7 10,5 0,6
19.09.2019 01:00:00 10,6 10,4 0,2
19.09.2019 00:00:00 10,6 10,3 0,4
18.09.2019 23:00:00 10,7 10,4 0,2
18.09.2019 22:00:00 10,8 10,5 0,2
18.09.2019 21:00:00 10,9 10,5 0,4
18.09.2019 20:00:00 11,4 10,7 0,2
18.09.2019 19:00:00 11,9 11,0 0,2
18.09.2019 18:00:00 12,2 11,2 0,0
18.09.2019 17:00:00 12,2 11,3 0,2
18.09.2019 16:00:00 12,1 11,2 0,4
18.09.2019 15:00:00 12,0 10,8 0,0
18.09.2019 14:00:00 11,4 10,1 0,2
18.09.2019 13:00:00 10,8 9,9 0,2
18.09.2019 12:00:00 9,7 8,8 0,2
18.09.2019 11:00:00 9,2 8,5 0,4
18.09.2019 10:00:00 8,3 7,5 0,0
18.09.2019 09:00:00 8,3 8,0 0,2
18.09.2019 08:00:00 7,5 7,3 0,0
18.09.2019 07:00:00 7,1 6,7 0,2
18.09.2019 06:00:00 7,1 6,7 0,0
18.09.2019 05:00:00 7,0 6,5 0,0
18.09.2019 04:00:00 7,0 6,3 0,0
18.09.2019 03:00:00 7,1 6,3 0,0
18.09.2019 02:00:00 7,5 6,5 0,0
18.09.2019 01:00:00 7,6 6,8 0,0
18.09.2019 00:00:00 7,6 6,6 0,0
17.09.2019 23:00:00 7,8 6,6 0,0
17.09.2019 22:00:00 8,3 6,6 0,0
17.09.2019 21:00:00 9,3 6,7 0,0
17.09.2019 20:00:00 9,8 6,6 0,0
17.09.2019 19:00:00 10,4 6,1 0,0
17.09.2019 18:00:00 11,1 5,4 0,0
17.09.2019 17:00:00 11,4 5,1 0,0
17.09.2019 16:00:00 12,5 4,4 0,0
17.09.2019 15:00:00 12,4 4,3 0,0
17.09.2019 14:00:00 11,9 4,8 0,0
17.09.2019 13:00:00 11,6 4,5 0,0
17.09.2019 12:00:00 12,0 5,1 0,0
17.09.2019 11:00:00 11,0 4,4 0,0
17.09.2019 10:00:00 10,2 5,2 0,0
17.09.2019 09:00:00 9,1 5,3 0,0
17.09.2019 08:00:00 8,2 4,9 0,0
17.09.2019 07:00:00 7,7 4,5 0,0
17.09.2019 06:00:00 7,1 3,4 0,0
17.09.2019 05:00:00 7,8 3,5 0,0
17.09.2019 04:00:00 7,6 3,8 0,0
17.09.2019 03:00:00 7,4 4,1 0,0
17.09.2019 02:00:00 5,4 3,8 0,0
17.09.2019 01:00:00 7,4 4,3 0,0
17.09.2019 00:00:00 8,0 4,8 0,0
16.09.2019 23:00:00 7,1 5,4 0,0
16.09.2019 22:00:00 7,9 6,1 0,0
16.09.2019 21:00:00 9,2 7,1 0,0
16.09.2019 20:00:00 9,5 7,6 0,6
16.09.2019 19:00:00 11,5 7,7 0,2
16.09.2019 18:00:00 11,9 7,8 0,0
16.09.2019 17:00:00 11,5 8,6 0,2
16.09.2019 16:00:00 13,3 6,8 0,0
16.09.2019 15:00:00 15,4 6,0 0,0
16.09.2019 14:00:00 14,1 5,7 0,0
16.09.2019 13:00:00 14,1 6,4 0,0
16.09.2019 12:00:00 14,4 6,5 0,0
16.09.2019 11:00:00 13,3 5,9 0,0
16.09.2019 10:00:00 12,0 5,8 0,0
16.09.2019 09:00:00 8,8 7,3 0,0
16.09.2019 08:00:00 5,0 4,8 0,0
16.09.2019 07:00:00 4,9 4,8 0,0
16.09.2019 06:00:00 4,9 4,6 0,0
16.09.2019 05:00:00 4,5 4,5 0,0
16.09.2019 04:00:00 2,8 2,6 0,0
16.09.2019 03:00:00 3,0 2,7 0,0
16.09.2019 02:00:00 3,4 3,0 0,0
16.09.2019 01:00:00 3,5 2,8 0,0
16.09.2019 00:00:00 4,5 3,7 0,0
15.09.2019 23:00:00 5,2 4,2 0,0
15.09.2019 22:00:00 7,4 5,8 0,0
15.09.2019 21:00:00 6,2 4,5 0,0
15.09.2019 20:00:00 8,7 5,3 0,0
15.09.2019 19:00:00 11,3 5,4 0,0
15.09.2019 18:00:00 12,6 5,0 0,0
15.09.2019 17:00:00 13,9 4,4 0,0
15.09.2019 16:00:00 14,3 4,9 0,0
15.09.2019 15:00:00 14,0 5,2 0,0
15.09.2019 14:00:00 14,9 4,6 0,0
15.09.2019 13:00:00 14,7 5,3 0,0
15.09.2019 12:00:00 12,8 5,5 0,0
15.09.2019 11:00:00 11,6 4,9 0,0
15.09.2019 10:00:00 11,2 4,8 0,0
15.09.2019 09:00:00 10,9 4,0 0,0
15.09.2019 08:00:00 10,5 3,6 0,0
15.09.2019 07:00:00 9,9 2,5 0,0
15.09.2019 06:00:00 10,2 3,4 0,0
15.09.2019 05:00:00 10,6 3,4 0,0
15.09.2019 04:00:00 10,4 4,2 0,0
15.09.2019 03:00:00 11,1 4,4 0,0
15.09.2019 02:00:00 11,4 5,9 0,0
15.09.2019 01:00:00 11,6 6,7 0,0
15.09.2019 00:00:00 11,6 7,5 0,0
14.09.2019 23:00:00 12,5 9,4 0,0
14.09.2019 22:00:00 12,3 10,4 0,4
14.09.2019 21:00:00 15,7 12,4 0,0
14.09.2019 20:00:00 17,3 11,9 0,0
14.09.2019 19:00:00 16,5 12,1 0,0
14.09.2019 18:00:00 15,8 11,3 0,0
14.09.2019 17:00:00 15,3 10,5 0,0
14.09.2019 16:00:00 16,5 11,1 0,0
14.09.2019 15:00:00 16,3 11,1 0,0
14.09.2019 14:00:00 16,0 10,5 0,0
14.09.2019 13:00:00 15,0 9,9 0,0
14.09.2019 12:00:00 14,1 9,2 0,0
14.09.2019 11:00:00 13,3 9,3 0,0
14.09.2019 10:00:00 11,9 9,2 0,0
14.09.2019 09:00:00 10,9 9,6 0,2
14.09.2019 08:00:00 9,9 8,9 1,4
14.09.2019 07:00:00 10,2 7,1 0,0
14.09.2019 06:00:00 9,9 7,4 0,0
14.09.2019 05:00:00 9,5 6,9 0,0

tt = Température de l'air
td = dewpoint
rr = Quantités de précipitations

stations d'obs. à proximité